createdAt,value
2018-09-02T00:00:13.343Z,20.29
2018-09-02T00:00:53.874Z,20.23
2018-09-02T00:01:34.416Z,20.26
2018-09-02T00:02:14.909Z,20.18
2018-09-02T00:02:55.425Z,20.28
2018-09-02T00:03:35.942Z,20.23
2018-09-02T00:04:16.460Z,20.28
2018-09-02T00:04:56.971Z,20.18
2018-09-02T00:05:37.479Z,20.18
2018-09-02T00:06:18.003Z,20.2
2018-09-02T00:06:58.527Z,20.16
2018-09-02T00:07:39.037Z,20.13
2018-09-02T00:08:19.550Z,20.21
2018-09-02T00:09:00.059Z,20.14
2018-09-02T00:09:40.572Z,20.2
2018-09-02T00:10:21.090Z,20.14
2018-09-02T00:11:01.613Z,20.16
2018-09-02T00:11:42.135Z,20.1
2018-09-02T00:12:22.653Z,20.03
2018-09-02T00:13:03.181Z,19.99
2018-09-02T00:13:43.700Z,20.06
2018-09-02T00:14:24.211Z,20.05
2018-09-02T00:15:04.732Z,20.06
2018-09-02T00:15:45.250Z,20.21
2018-09-02T00:16:25.762Z,20.2
2018-09-02T00:17:06.271Z,20.17
2018-09-02T00:17:46.781Z,20.11
2018-09-02T00:18:27.310Z,20.2
2018-09-02T00:19:07.843Z,20.17
2018-09-02T00:19:48.363Z,19.92
2018-09-02T00:20:28.959Z,19.96
2018-09-02T00:21:09.436Z,20.03
2018-09-02T00:21:49.927Z,19.95
2018-09-02T00:22:30.461Z,19.92
2018-09-02T00:23:10.981Z,19.81
2018-09-02T00:23:51.497Z,19.92
2018-09-02T00:24:32.023Z,19.86
2018-09-02T00:25:12.562Z,19.81
2018-09-02T00:25:53.093Z,19.86
2018-09-02T00:26:33.607Z,19.76
2018-09-02T00:27:14.120Z,19.76
2018-09-02T00:27:54.646Z,19.71
2018-09-02T00:28:35.164Z,19.84
2018-09-02T00:29:15.925Z,19.86
2018-09-02T00:29:56.379Z,19.74
2018-09-02T00:30:36.898Z,19.74
2018-09-02T00:31:17.418Z,19.76
2018-09-02T00:31:57.935Z,19.69
2018-09-02T00:32:38.448Z,19.69
2018-09-02T00:33:19.020Z,19.73
2018-09-02T00:33:59.614Z,19.76
2018-09-02T00:34:40.008Z,19.77
2018-09-02T00:35:20.522Z,19.74
2018-09-02T00:36:01.227Z,19.73
2018-09-02T00:36:41.607Z,19.66
2018-09-02T00:37:22.131Z,19.65
2018-09-02T00:38:02.670Z,19.63
2018-09-02T00:38:43.185Z,19.71
2018-09-02T00:39:23.706Z,19.73
2018-09-02T00:40:04.226Z,19.59
2018-09-02T00:40:44.754Z,19.63
2018-09-02T00:41:25.285Z,19.58
2018-09-02T00:42:05.810Z,19.55
2018-09-02T00:42:46.339Z,19.44
2018-09-02T00:43:26.861Z,19.39
2018-09-02T00:44:07.394Z,19.41
2018-09-02T00:44:47.907Z,19.25
2018-09-02T00:45:28.421Z,19.25
2018-09-02T00:46:08.950Z,19.23
2018-09-02T00:46:49.471Z,19.28
2018-09-02T00:47:29.994Z,19.22
2018-09-02T00:48:10.511Z,19.39
2018-09-02T00:48:51.046Z,19.39
2018-09-02T00:49:31.560Z,19.31
2018-09-02T00:50:12.084Z,19.39
2018-09-02T00:50:52.615Z,19.37
2018-09-02T00:51:33.125Z,19.33
2018-09-02T00:52:13.649Z,19.39
2018-09-02T00:52:54.168Z,19.43
2018-09-02T00:53:34.692Z,19.33
2018-09-02T00:54:15.208Z,19.39
2018-09-02T00:54:55.739Z,19.5
2018-09-02T00:55:36.530Z,19.43
2018-09-02T00:56:17.052Z,19.51
2018-09-02T00:56:57.563Z,19.5
2018-09-02T00:57:38.067Z,19.44
2018-09-02T00:58:18.601Z,19.43
2018-09-02T00:58:59.116Z,19.54
2018-09-02T00:59:39.632Z,19.51
2018-09-02T01:00:20.145Z,19.56
2018-09-02T01:01:00.665Z,19.44
2018-09-02T01:01:41.180Z,19.47
2018-09-02T01:02:21.699Z,19.56
2018-09-02T01:03:02.212Z,19.54
2018-09-02T01:03:42.738Z,19.66
2018-09-02T01:04:23.268Z,19.63
2018-09-02T01:05:03.857Z,19.5
2018-09-02T01:05:44.362Z,19.61
2018-09-02T01:06:24.896Z,19.59
2018-09-02T01:07:05.416Z,19.61
2018-09-02T01:07:45.934Z,19.51
2018-09-02T01:08:26.446Z,19.61
2018-09-02T01:09:06.969Z,19.56
2018-09-02T01:09:47.493Z,19.63
2018-09-02T01:10:28.012Z,19.65
2018-09-02T01:11:08.529Z,19.56
2018-09-02T01:11:49.067Z,19.48
2018-09-02T01:12:29.639Z,19.47
2018-09-02T01:13:10.167Z,19.46
2018-09-02T01:13:50.691Z,19.51
2018-09-02T01:14:31.213Z,19.54
2018-09-02T01:15:11.739Z,19.41
2018-09-02T01:15:52.270Z,19.56
2018-09-02T01:16:32.783Z,19.62
2018-09-02T01:17:13.302Z,19.61
2018-09-02T01:17:53.818Z,19.58
2018-09-02T01:18:34.368Z,19.48
2018-09-02T01:19:14.910Z,19.58
2018-09-02T01:19:55.430Z,19.44
2018-09-02T01:20:35.975Z,19.44
2018-09-02T01:21:16.599Z,19.44
2018-09-02T01:21:57.126Z,19.33
2018-09-02T01:22:37.651Z,19.46
2018-09-02T01:23:18.186Z,19.44
2018-09-02T01:23:58.701Z,19.41
2018-09-02T01:24:39.222Z,19.4
2018-09-02T01:25:19.734Z,19.47
2018-09-02T01:26:00.246Z,19.54
2018-09-02T01:26:40.865Z,19.62
2018-09-02T01:27:21.377Z,19.62
2018-09-02T01:28:01.907Z,19.54
2018-09-02T01:28:42.426Z,19.54
2018-09-02T01:29:22.946Z,19.46
2018-09-02T01:30:03.474Z,19.41
2018-09-02T01:30:43.983Z,19.4
2018-09-02T01:31:24.505Z,19.4
2018-09-02T01:32:05.014Z,19.39
2018-09-02T01:32:45.533Z,19.44
2018-09-02T01:33:26.260Z,19.4
2018-09-02T01:34:06.779Z,19.46
2018-09-02T01:34:47.305Z,19.47
2018-09-02T01:35:27.832Z,19.46
2018-09-02T01:36:08.338Z,19.41
2018-09-02T01:36:48.859Z,19.41
2018-09-02T01:37:29.384Z,19.44
2018-09-02T01:38:09.911Z,19.48
2018-09-02T01:38:50.413Z,19.43
2018-09-02T01:39:30.938Z,19.5
2018-09-02T01:40:11.444Z,19.48
2018-09-02T01:40:51.959Z,19.43
2018-09-02T01:41:32.482Z,19.41
2018-09-02T01:42:12.988Z,19.48
2018-09-02T01:42:53.507Z,19.47
2018-09-02T01:43:34.028Z,19.59
2018-09-02T01:44:14.553Z,19.59
2018-09-02T01:44:55.075Z,19.62
2018-09-02T01:45:35.597Z,19.62
2018-09-02T01:46:16.109Z,19.68
2018-09-02T01:46:56.628Z,19.59
2018-09-02T01:47:37.138Z,19.68
2018-09-02T01:48:17.684Z,19.59
2018-09-02T01:48:58.202Z,19.54
2018-09-02T01:49:38.724Z,19.55
2018-09-02T01:50:19.251Z,19.55
2018-09-02T01:50:59.751Z,19.5
2018-09-02T01:51:40.265Z,19.58
2018-09-02T01:52:20.787Z,19.51
2018-09-02T01:53:01.311Z,19.51
2018-09-02T01:53:41.837Z,19.55
2018-09-02T01:54:22.490Z,19.62
2018-09-02T01:55:02.997Z,19.54
2018-09-02T01:55:43.507Z,19.62
2018-09-02T01:56:24.032Z,19.5
2018-09-02T01:57:04.558Z,19.44
2018-09-02T01:57:45.077Z,19.56
2018-09-02T01:58:25.589Z,19.55
2018-09-02T01:59:06.105Z,19.55
2018-09-02T01:59:46.646Z,19.65
2018-09-02T02:00:27.550Z,19.56
2018-09-02T02:01:08.300Z,19.62
2018-09-02T02:01:48.598Z,19.62
2018-09-02T02:02:29.118Z,19.54
2018-09-02T02:03:09.630Z,19.58
2018-09-02T02:03:50.158Z,19.55
2018-09-02T02:04:30.685Z,19.66
2018-09-02T02:05:11.207Z,19.62
2018-09-02T02:05:51.723Z,19.58
2018-09-02T02:06:32.235Z,19.55
2018-09-02T02:07:12.752Z,19.55
2018-09-02T02:07:53.267Z,19.62
2018-09-02T02:08:33.889Z,19.55
2018-09-02T02:09:14.421Z,19.51
2018-09-02T02:09:54.941Z,19.44
2018-09-02T02:10:35.477Z,19.41
2018-09-02T02:11:15.991Z,19.4
2018-09-02T02:11:56.512Z,19.41
2018-09-02T02:12:37.009Z,19.55
2018-09-02T02:13:17.514Z,19.55
2018-09-02T02:13:58.656Z,19.56
2018-09-02T02:14:38.607Z,19.56
2018-09-02T02:15:19.127Z,19.54
2018-09-02T02:15:59.642Z,19.59
2018-09-02T02:16:40.172Z,19.56
2018-09-02T02:17:20.697Z,19.58
2018-09-02T02:18:01.209Z,19.63
2018-09-02T02:18:41.731Z,19.48
2018-09-02T02:19:22.253Z,19.46
2018-09-02T02:20:02.777Z,19.61
2018-09-02T02:20:43.350Z,19.44
2018-09-02T02:21:24.113Z,19.4
2018-09-02T02:22:04.605Z,19.39
2018-09-02T02:22:45.322Z,19.43
2018-09-02T02:23:25.837Z,19.36
2018-09-02T02:24:06.364Z,19.26
2018-09-02T02:24:46.885Z,19.4
2018-09-02T02:25:27.397Z,19.31
2018-09-02T02:26:07.927Z,19.33
2018-09-02T02:26:48.452Z,19.28
2018-09-02T02:27:28.978Z,19.21
2018-09-02T02:28:09.494Z,19.22
2018-09-02T02:28:50.023Z,19.22
2018-09-02T02:30:48.524Z,19.36
2018-09-02T02:31:29.051Z,19.4
2018-09-02T02:32:09.565Z,19.36
2018-09-02T02:32:50.090Z,19.41
2018-09-02T02:33:30.597Z,19.44
2018-09-02T02:34:11.157Z,19.46
2018-09-02T02:35:48.619Z,19.47
2018-09-02T02:36:29.077Z,19.47
2018-09-02T02:37:09.602Z,19.46
2018-09-02T02:37:50.120Z,19.4
2018-09-02T02:38:30.637Z,19.47
2018-09-02T02:39:11.244Z,19.48
2018-09-02T02:39:51.752Z,19.43
2018-09-02T02:40:32.297Z,19.44
2018-09-02T02:41:12.831Z,19.51
2018-09-02T02:41:53.339Z,19.43
2018-09-02T02:42:33.860Z,19.43
2018-09-02T02:43:14.368Z,19.41
2018-09-02T02:43:54.889Z,19.43
2018-09-02T02:44:35.400Z,19.32
2018-09-02T02:45:15.932Z,19.14
2018-09-02T02:45:56.452Z,19.25
2018-09-02T02:46:37.006Z,19.39
2018-09-02T02:47:17.521Z,19.36
2018-09-02T02:47:58.031Z,19.43
2018-09-02T02:48:38.544Z,19.48
2018-09-02T02:49:19.057Z,19.47
2018-09-02T02:49:59.587Z,19.37
2018-09-02T02:50:40.109Z,19.44
2018-09-02T02:51:20.624Z,19.54
2018-09-02T02:52:01.142Z,19.44
2018-09-02T02:52:41.654Z,19.41
2018-09-02T02:53:22.164Z,19.41
2018-09-02T02:54:02.700Z,19.32
2018-09-02T02:55:50.803Z,19.19
2018-09-02T02:56:31.351Z,19.32
2018-09-02T02:57:11.871Z,19.25
2018-09-02T02:57:52.400Z,19.31
2018-09-02T02:58:32.990Z,19.33
2018-09-02T02:59:13.517Z,19.37
2018-09-02T02:59:54.056Z,19.43
2018-09-02T03:00:34.580Z,19.39
2018-09-02T03:01:15.095Z,19.39
2018-09-02T03:01:55.622Z,19.33
2018-09-02T03:02:36.132Z,19.32
2018-09-02T03:03:16.645Z,19.36
2018-09-02T03:03:57.157Z,19.39
2018-09-02T03:04:37.678Z,19.39
2018-09-02T03:05:18.192Z,19.41
2018-09-02T03:05:58.706Z,19.41
2018-09-02T03:06:39.223Z,19.32
2018-09-02T03:07:19.729Z,19.44
2018-09-02T03:08:00.241Z,19.47
2018-09-02T03:08:40.766Z,19.48
2018-09-02T03:09:21.290Z,19.54
2018-09-02T03:10:01.804Z,19.48
2018-09-02T03:10:42.343Z,19.39
2018-09-02T03:11:22.852Z,19.48
2018-09-02T03:12:03.366Z,19.37
2018-09-02T03:12:43.901Z,19.37
2018-09-02T03:13:24.425Z,19.54
2018-09-02T03:14:04.942Z,19.41
2018-09-02T03:14:45.472Z,19.4
2018-09-02T03:15:25.989Z,19.41
2018-09-02T03:16:06.531Z,19.44
2018-09-02T03:16:47.052Z,19.4
2018-09-02T03:17:27.569Z,19.4
2018-09-02T03:18:08.085Z,19.48
2018-09-02T03:18:48.625Z,19.43
2018-09-02T03:20:26.002Z,19.48
2018-09-02T03:21:06.526Z,19.4
2018-09-02T03:21:47.032Z,19.32
2018-09-02T03:22:27.560Z,19.44
2018-09-02T03:23:08.080Z,19.4
2018-09-02T03:23:48.609Z,19.41
2018-09-02T03:24:29.130Z,19.48
2018-09-02T03:25:09.640Z,19.5
2018-09-02T03:25:50.141Z,19.46
2018-09-02T03:26:30.647Z,19.43
2018-09-02T03:27:11.152Z,19.43
2018-09-02T03:27:51.674Z,19.54
2018-09-02T03:28:32.179Z,19.4
2018-09-02T03:29:12.701Z,19.32
2018-09-02T03:29:53.216Z,19.21
2018-09-02T03:30:33.734Z,19.26
2018-09-02T03:31:14.274Z,19.31
2018-09-02T03:31:54.785Z,19.39
2018-09-02T03:32:35.323Z,19.41
2018-09-02T03:33:15.871Z,19.41
2018-09-02T03:33:56.403Z,19.33
2018-09-02T03:34:36.991Z,19.37
2018-09-02T03:35:17.536Z,19.32
2018-09-02T03:35:58.061Z,19.39
2018-09-02T03:36:38.578Z,19.37
2018-09-02T03:37:19.090Z,19.4
2018-09-02T03:37:59.610Z,19.39
2018-09-02T03:38:40.129Z,19.41
2018-09-02T03:39:20.638Z,19.41
2018-09-02T03:40:01.160Z,19.36
2018-09-02T03:40:41.913Z,19.31
2018-09-02T03:41:22.431Z,19.23
2018-09-02T03:42:02.952Z,19.22
2018-09-02T03:42:43.465Z,19.31
2018-09-02T03:43:23.982Z,19.29
2018-09-02T03:44:04.494Z,19.19
2018-09-02T03:44:45.021Z,19.23
2018-09-02T03:45:25.533Z,19.06
2018-09-02T03:46:06.063Z,19.1
2018-09-02T03:46:46.579Z,19.1
2018-09-02T03:47:27.093Z,19.04
2018-09-02T03:48:07.620Z,18.95
2018-09-02T03:48:48.148Z,19.08
2018-09-02T03:49:28.662Z,18.98
2018-09-02T03:50:09.305Z,18.98
2018-09-02T03:50:49.835Z,19.04
2018-09-02T03:51:30.349Z,18.99
2018-09-02T03:52:10.862Z,19.04
2018-09-02T03:52:51.380Z,19.06
2018-09-02T03:53:31.898Z,19.19
2018-09-02T03:54:12.432Z,19.07
2018-09-02T03:54:53.190Z,19.06
2018-09-02T03:55:33.725Z,19.06
2018-09-02T03:57:26.664Z,19.14
2018-09-02T03:58:07.169Z,19.07
2018-09-02T03:58:47.696Z,19.04
2018-09-02T03:59:28.205Z,19.07
2018-09-02T04:00:08.737Z,19.07
2018-09-02T04:00:49.253Z,19.11
2018-09-02T04:01:29.770Z,19.18
2018-09-02T04:02:10.296Z,19.16
2018-09-02T04:02:50.821Z,19.18
2018-09-02T04:03:31.339Z,19.14
2018-09-02T04:04:11.849Z,19.18
2018-09-02T04:04:52.364Z,19.23
2018-09-02T04:05:32.886Z,19.23
2018-09-02T04:06:13.412Z,19.29
2018-09-02T04:06:53.934Z,19.25
2018-09-02T04:07:34.452Z,19.16
2018-09-02T04:08:14.982Z,19.18
2018-09-02T04:08:55.511Z,19.22
2018-09-02T04:09:36.027Z,19.18
2018-09-02T04:10:16.553Z,19.25
2018-09-02T04:10:57.076Z,19.19
2018-09-02T04:11:37.595Z,19.22
2018-09-02T04:12:18.106Z,19.31
2018-09-02T04:12:58.624Z,19.25
2018-09-02T04:13:39.224Z,19.22
2018-09-02T04:14:19.738Z,19.28
2018-09-02T04:15:00.252Z,19.28
2018-09-02T04:15:40.767Z,19.32
2018-09-02T04:16:21.293Z,19.31
2018-09-02T04:17:01.797Z,19.33
2018-09-02T04:17:42.321Z,19.22
2018-09-02T04:18:22.840Z,19.28
2018-09-02T04:19:03.364Z,19.28
2018-09-02T04:19:43.875Z,19.25
2018-09-02T04:21:32.137Z,19.29
2018-09-02T04:22:12.655Z,19.28
2018-09-02T04:22:53.178Z,19.25
2018-09-02T04:23:33.698Z,19.25
2018-09-02T04:24:14.227Z,19.23
2018-09-02T04:24:54.744Z,19.16
2018-09-02T04:25:35.375Z,19.08
2018-09-02T04:26:15.885Z,19.06
2018-09-02T04:26:56.453Z,19.1
2018-09-02T04:27:36.974Z,19.18
2018-09-02T04:28:17.490Z,19.18
2018-09-02T04:28:58.011Z,19.19
2018-09-02T04:29:38.528Z,19.21
2018-09-02T04:30:19.035Z,19.22
2018-09-02T04:30:59.561Z,19.26
2018-09-02T04:31:40.072Z,19.25
2018-09-02T04:32:20.586Z,19.19
2018-09-02T04:33:01.106Z,19.22
2018-09-02T04:33:42.473Z,19.19
2018-09-02T04:34:22.935Z,19.22
2018-09-02T04:35:03.442Z,19.11
2018-09-02T04:35:43.967Z,19.08
2018-09-02T04:36:24.479Z,19.14
2018-09-02T04:37:05.001Z,19.16
2018-09-02T04:37:45.523Z,19.13
2018-09-02T04:38:26.037Z,19.02
2018-09-02T04:39:06.567Z,19.13
2018-09-02T04:39:47.090Z,19.19
2018-09-02T04:40:27.602Z,19.14
2018-09-02T04:41:08.127Z,19.11
2018-09-02T04:41:48.653Z,19.02
2018-09-02T04:42:29.182Z,19.07
2018-09-02T04:43:09.703Z,19.02
2018-09-02T04:43:50.217Z,19.1
2018-09-02T04:44:30.741Z,19.13
2018-09-02T04:45:11.301Z,19.07
2018-09-02T04:45:51.782Z,19.14
2018-09-02T04:46:32.307Z,19.1
2018-09-02T04:47:12.868Z,19.07
2018-09-02T04:47:53.380Z,19.02
2018-09-02T04:48:33.931Z,19.06
2018-09-02T04:49:14.452Z,19.16
2018-09-02T04:49:54.965Z,19.18
2018-09-02T04:50:35.485Z,19.13
2018-09-02T04:51:16.092Z,19.18
2018-09-02T04:51:56.524Z,19.19
2018-09-02T04:52:37.037Z,19.19
2018-09-02T04:53:17.555Z,19.18
2018-09-02T04:53:58.087Z,19.16
2018-09-02T04:54:38.607Z,19.16
2018-09-02T04:55:19.106Z,19.16
2018-09-02T04:55:59.627Z,19.16
2018-09-02T04:56:40.156Z,19
2018-09-02T04:57:20.674Z,18.92
2018-09-02T04:58:01.209Z,19
2018-09-02T04:58:41.724Z,18.92
2018-09-02T04:59:22.242Z,19.04
2018-09-02T05:00:02.762Z,19.02
2018-09-02T05:00:43.278Z,19.08
2018-09-02T05:01:23.802Z,19.06
2018-09-02T05:02:04.316Z,19.08
2018-09-02T05:02:44.835Z,19
2018-09-02T05:03:25.361Z,18.99
2018-09-02T05:04:05.880Z,18.95
2018-09-02T05:04:46.391Z,18.92
2018-09-02T05:05:26.908Z,18.9
2018-09-02T05:06:07.422Z,18.98
2018-09-02T05:06:47.935Z,18.92
2018-09-02T05:07:28.451Z,18.9
2018-09-02T05:08:08.969Z,18.9
2018-09-02T05:08:49.490Z,18.87
2018-09-02T05:09:30.009Z,18.91
2018-09-02T05:10:10.509Z,19
2018-09-02T05:10:51.020Z,18.91
2018-09-02T05:11:31.552Z,18.95
2018-09-02T05:12:12.079Z,18.91
2018-09-02T05:12:52.600Z,19
2018-09-02T05:13:33.115Z,18.99
2018-09-02T05:14:13.808Z,18.88
2018-09-02T05:14:54.160Z,18.87
2018-09-02T05:15:34.669Z,18.87
2018-09-02T05:16:15.182Z,18.87
2018-09-02T05:16:55.713Z,18.95
2018-09-02T05:17:36.220Z,18.92
2018-09-02T05:18:16.744Z,18.94
2018-09-02T05:18:57.273Z,19
2018-09-02T05:19:37.799Z,18.98
2018-09-02T05:20:18.313Z,19.06
2018-09-02T05:20:58.839Z,19.02
2018-09-02T05:21:39.340Z,19.11
2018-09-02T05:22:19.855Z,19.04
2018-09-02T05:23:00.554Z,19.11
2018-09-02T05:23:41.074Z,19.07
2018-09-02T05:24:21.594Z,19.06
2018-09-02T05:25:02.116Z,19.07
2018-09-02T05:25:42.621Z,19.07
2018-09-02T05:26:23.138Z,19.18
2018-09-02T05:27:03.653Z,19.06
2018-09-02T05:27:44.174Z,19.07
2018-09-02T05:28:24.695Z,19.08
2018-09-02T05:29:05.215Z,19.02
2018-09-02T05:29:45.792Z,19.06
2018-09-02T05:30:26.306Z,19.07
2018-09-02T05:31:06.821Z,19.07
2018-09-02T05:31:47.336Z,19.13
2018-09-02T05:32:27.863Z,19.06
2018-09-02T05:33:08.380Z,19.07
2018-09-02T05:33:48.909Z,19.21
2018-09-02T05:34:29.425Z,19.11
2018-09-02T05:35:09.941Z,19.11
2018-09-02T05:35:50.451Z,19.16
2018-09-02T05:36:30.966Z,19.16
2018-09-02T05:37:11.490Z,19.08
2018-09-02T05:37:52.001Z,19.07
2018-09-02T05:38:32.517Z,19.21
2018-09-02T05:39:13.044Z,19.13
2018-09-02T05:39:53.569Z,19.11
2018-09-02T05:40:34.088Z,19.16
2018-09-02T05:41:14.614Z,19.22
2018-09-02T05:41:55.125Z,19.18
2018-09-02T05:42:35.643Z,19.21
2018-09-02T05:43:16.163Z,19.21
2018-09-02T05:43:56.716Z,19.21
2018-09-02T05:44:37.197Z,19.29
2018-09-02T05:45:17.705Z,19.33
2018-09-02T05:45:58.218Z,19.41
2018-09-02T05:46:38.737Z,19.41
2018-09-02T05:47:19.254Z,19.41
2018-09-02T05:47:59.773Z,19.33
2018-09-02T05:48:40.291Z,19.25
2018-09-02T05:49:20.814Z,19.21
2018-09-02T05:50:01.338Z,19.31
2018-09-02T05:50:41.851Z,19.4
2018-09-02T05:51:22.374Z,19.41
2018-09-02T05:52:02.891Z,19.37
2018-09-02T05:52:43.396Z,19.13
2018-09-02T05:53:23.956Z,19.28
2018-09-02T05:54:04.470Z,19.29
2018-09-02T05:54:44.987Z,19.32
2018-09-02T05:55:25.505Z,19.36
2018-09-02T05:56:06.034Z,19.39
2018-09-02T05:56:46.551Z,19.4
2018-09-02T05:57:27.069Z,19.37
2018-09-02T05:58:07.583Z,19.32
2018-09-02T05:58:48.111Z,19.44
2018-09-02T05:59:28.617Z,19.4
2018-09-02T06:00:09.127Z,19.41
2018-09-02T06:00:49.642Z,19.26
2018-09-02T06:01:30.153Z,19.25
2018-09-02T06:02:10.693Z,19.23
2018-09-02T06:02:51.270Z,19.32
2018-09-02T06:03:31.754Z,19.25
2018-09-02T06:04:12.281Z,19.22
2018-09-02T06:04:52.788Z,19.22
2018-09-02T06:05:33.314Z,19.26
2018-09-02T06:06:13.857Z,19.26
2018-09-02T06:06:54.374Z,19.28
2018-09-02T06:07:34.910Z,19.26
2018-09-02T06:08:15.430Z,19.37
2018-09-02T06:08:55.944Z,19.36
2018-09-02T06:09:36.454Z,19.4
2018-09-02T06:10:16.973Z,19.4
2018-09-02T06:10:57.479Z,19.37
2018-09-02T06:11:38.003Z,19.4
2018-09-02T06:12:18.532Z,19.41
2018-09-02T06:12:59.041Z,19.36
2018-09-02T06:13:39.550Z,19.4
2018-09-02T06:14:20.072Z,19.43
2018-09-02T06:15:00.603Z,19.46
2018-09-02T06:15:41.123Z,19.54
2018-09-02T06:16:21.633Z,19.56
2018-09-02T06:17:02.158Z,19.58
2018-09-02T06:17:42.675Z,19.58
2018-09-02T06:18:23.188Z,19.56
2018-09-02T06:19:03.721Z,19.62
2018-09-02T06:19:44.238Z,19.68
2018-09-02T06:20:24.769Z,19.73
2018-09-02T06:21:05.317Z,19.68
2018-09-02T06:21:45.855Z,19.71
2018-09-02T06:22:26.364Z,19.65
2018-09-02T06:23:06.878Z,19.56
2018-09-02T06:23:47.393Z,19.61
2018-09-02T06:24:27.970Z,19.56
2018-09-02T06:25:08.489Z,19.55
2018-09-02T06:25:49.010Z,19.51
2018-09-02T06:26:29.533Z,19.62
2018-09-02T06:27:10.079Z,19.5
2018-09-02T06:27:50.729Z,19.55
2018-09-02T06:28:31.260Z,19.48
2018-09-02T06:29:11.778Z,19.61
2018-09-02T06:29:52.395Z,19.55
2018-09-02T06:30:32.828Z,19.58
2018-09-02T06:31:13.351Z,19.59
2018-09-02T06:31:53.856Z,19.54
2018-09-02T06:32:34.382Z,19.48
2018-09-02T06:33:14.893Z,19.4
2018-09-02T06:33:55.407Z,19.44
2018-09-02T06:34:35.927Z,19.39
2018-09-02T06:35:16.450Z,19.37
2018-09-02T06:35:56.979Z,19.16
2018-09-02T06:36:37.483Z,19.23
2018-09-02T06:37:18.031Z,19.28
2018-09-02T06:37:58.527Z,19.25
2018-09-02T06:38:39.035Z,19.36
2018-09-02T06:39:19.582Z,19.41
2018-09-02T06:40:00.070Z,19.41
2018-09-02T06:40:40.581Z,19.47
2018-09-02T06:41:21.103Z,19.47
2018-09-02T06:42:01.626Z,19.43
2018-09-02T06:42:42.140Z,19.41
2018-09-02T06:43:22.654Z,19.51
2018-09-02T06:44:03.188Z,19.43
2018-09-02T06:44:43.713Z,19.55
2018-09-02T06:45:24.231Z,19.55
2018-09-02T06:46:04.746Z,19.56
2018-09-02T06:46:45.262Z,19.61
2018-09-02T06:47:25.769Z,19.55
2018-09-02T06:48:06.296Z,19.62
2018-09-02T06:48:47.581Z,19.58
2018-09-02T06:49:28.103Z,19.62
2018-09-02T06:50:08.656Z,19.44
2018-09-02T06:50:49.182Z,19.55
2018-09-02T06:51:29.705Z,19.61
2018-09-02T06:52:10.210Z,19.61
2018-09-02T06:52:50.734Z,19.59
2018-09-02T06:53:31.243Z,19.61
2018-09-02T06:54:11.774Z,19.66
2018-09-02T06:54:52.306Z,19.71
2018-09-02T06:55:32.857Z,19.66
2018-09-02T06:56:13.353Z,19.76
2018-09-02T06:56:53.864Z,19.62
2018-09-02T06:57:34.375Z,19.59
2018-09-02T06:58:14.890Z,19.59
2018-09-02T06:58:55.403Z,19.62
2018-09-02T06:59:35.923Z,19.68
2018-09-02T07:00:16.451Z,19.61
2018-09-02T07:00:56.979Z,19.58
2018-09-02T07:01:37.494Z,19.65
2018-09-02T07:02:18.015Z,19.58
2018-09-02T07:02:58.694Z,19.59
2018-09-02T07:03:39.206Z,19.58
2018-09-02T07:04:19.728Z,19.63
2018-09-02T07:05:00.250Z,19.58
2018-09-02T07:05:40.761Z,19.48
2018-09-02T07:06:21.281Z,19.66
2018-09-02T07:07:01.789Z,19.74
2018-09-02T07:07:42.310Z,19.74
2018-09-02T07:08:22.831Z,19.76
2018-09-02T07:09:03.364Z,19.71
2018-09-02T07:09:43.869Z,19.69
2018-09-02T07:10:24.388Z,19.78
2018-09-02T07:11:04.914Z,19.86
2018-09-02T07:11:45.441Z,19.76
2018-09-02T07:12:25.958Z,19.98
2018-09-02T07:13:06.492Z,19.92
2018-09-02T07:13:47.013Z,19.94
2018-09-02T07:14:27.607Z,19.88
2018-09-02T07:15:08.056Z,19.99
2018-09-02T07:15:48.572Z,20.08
2018-09-02T07:16:29.109Z,20.17
2018-09-02T07:17:09.658Z,20.24
2018-09-02T07:17:50.173Z,20.02
2018-09-02T07:18:30.693Z,20.17
2018-09-02T07:19:11.227Z,20.02
2018-09-02T07:19:51.815Z,20.16
2018-09-02T07:20:32.336Z,20.03
2018-09-02T07:21:12.876Z,19.92
2018-09-02T07:21:53.392Z,19.92
2018-09-02T07:22:33.913Z,19.84
2018-09-02T07:23:14.435Z,19.94
2018-09-02T07:23:55.071Z,19.94
2018-09-02T07:24:35.575Z,19.96
2018-09-02T07:25:16.100Z,20.05
2018-09-02T07:25:56.625Z,20.21
2018-09-02T07:26:37.137Z,20.17
2018-09-02T07:27:17.667Z,20.23
2018-09-02T07:27:58.182Z,20.28
2018-09-02T07:28:38.705Z,20.28
2018-09-02T07:29:19.228Z,20.21
2018-09-02T07:29:59.747Z,20.24
2018-09-02T07:30:40.286Z,20.24
2018-09-02T07:31:20.841Z,20.32
2018-09-02T07:32:01.336Z,20.33
2018-09-02T07:32:41.882Z,20.38
2018-09-02T07:33:22.416Z,20.39
2018-09-02T07:34:02.937Z,20.5
2018-09-02T07:34:43.449Z,20.48
2018-09-02T07:35:23.970Z,20.55
2018-09-02T07:36:04.487Z,20.55
2018-09-02T07:36:45.003Z,20.61
2018-09-02T07:37:25.525Z,20.58
2018-09-02T07:38:06.142Z,20.58
2018-09-02T07:38:46.644Z,20.64
2018-09-02T07:39:27.173Z,20.58
2018-09-02T07:40:07.695Z,20.61
2018-09-02T07:40:48.219Z,20.62
2018-09-02T07:41:28.746Z,20.58
2018-09-02T07:42:09.257Z,20.59
2018-09-02T07:42:49.780Z,20.74
2018-09-02T07:43:30.299Z,20.84
2018-09-02T07:44:11.264Z,20.85
2018-09-02T07:44:51.748Z,20.84
2018-09-02T07:45:32.267Z,20.84
2018-09-02T07:46:12.787Z,20.82
2018-09-02T07:46:53.307Z,20.84
2018-09-02T07:48:31.157Z,20.84
2018-09-02T07:49:11.673Z,20.92
2018-09-02T07:49:52.256Z,20.89
2018-09-02T07:50:32.721Z,20.8
2018-09-02T07:51:13.241Z,20.94
2018-09-02T07:51:53.760Z,20.94
2018-09-02T07:52:34.289Z,20.92
2018-09-02T07:53:14.802Z,20.85
2018-09-02T07:53:55.324Z,20.91
2018-09-02T07:54:36.031Z,20.98
2018-09-02T07:55:16.388Z,20.94
2018-09-02T07:55:56.913Z,21.03
2018-09-02T07:56:37.505Z,21.01
2018-09-02T07:57:18.003Z,20.98
2018-09-02T07:57:58.537Z,20.97
2018-09-02T07:58:39.054Z,21.01
2018-09-02T07:59:19.583Z,21.03
2018-09-02T08:00:00.093Z,20.97
2018-09-02T08:00:40.624Z,20.95
2018-09-02T08:01:21.140Z,20.88
2018-09-02T08:02:01.660Z,20.87
2018-09-02T08:02:42.226Z,20.84
2018-09-02T08:03:22.709Z,20.89
2018-09-02T08:04:03.364Z,20.8
2018-09-02T08:04:43.890Z,20.84
2018-09-02T08:05:24.411Z,20.84
2018-09-02T08:06:04.934Z,20.84
2018-09-02T08:06:45.468Z,20.72
2018-09-02T08:07:25.984Z,20.8
2018-09-02T08:08:06.500Z,20.84
2018-09-02T08:08:47.022Z,20.85
2018-09-02T08:09:27.565Z,20.89
2018-09-02T08:10:08.110Z,20.95
2018-09-02T08:10:48.632Z,21.01
2018-09-02T08:11:29.157Z,20.97
2018-09-02T08:12:09.707Z,20.88
2018-09-02T08:12:50.415Z,20.84
2018-09-02T08:13:30.726Z,20.69
2018-09-02T08:14:11.255Z,20.76
2018-09-02T08:14:51.765Z,20.8
2018-09-02T08:15:32.296Z,20.69
2018-09-02T08:16:12.827Z,20.7
2018-09-02T08:16:53.361Z,20.72
2018-09-02T08:17:33.887Z,20.61
2018-09-02T08:18:14.414Z,20.67
2018-09-02T08:18:54.952Z,20.77
2018-09-02T08:19:35.468Z,20.79
2018-09-02T08:20:16.002Z,20.82
2018-09-02T08:20:56.503Z,20.8
2018-09-02T08:21:37.056Z,20.82
2018-09-02T08:22:17.610Z,20.8
2018-09-02T08:22:58.125Z,20.8
2018-09-02T08:23:38.646Z,20.74
2018-09-02T08:24:19.163Z,20.8
2018-09-02T08:24:59.687Z,20.67
2018-09-02T08:25:40.203Z,20.84
2018-09-02T08:26:20.737Z,20.89
2018-09-02T08:27:01.271Z,20.84
2018-09-02T08:27:41.840Z,20.88
2018-09-02T08:28:22.402Z,20.87
2018-09-02T08:29:02.946Z,20.98
2018-09-02T08:29:43.468Z,20.92
2018-09-02T08:30:23.980Z,20.99
2018-09-02T08:31:04.487Z,21.1
2018-09-02T08:31:44.998Z,21.04
2018-09-02T08:32:25.521Z,21.07
2018-09-02T08:33:06.325Z,21.16
2018-09-02T08:33:46.750Z,21.13
2018-09-02T08:34:27.279Z,21.24
2018-09-02T08:35:07.829Z,21.32
2018-09-02T08:35:48.352Z,21.29
2018-09-02T08:36:28.870Z,21.22
2018-09-02T08:37:09.383Z,21.29
2018-09-02T08:37:49.905Z,21.4
2018-09-02T08:38:30.417Z,21.4
2018-09-02T08:39:10.990Z,21.43
2018-09-02T08:39:51.521Z,21.4
2018-09-02T08:40:31.996Z,21.44
2018-09-02T08:41:12.507Z,21.34
2018-09-02T08:41:53.027Z,21.38
2018-09-02T08:42:33.552Z,21.29
2018-09-02T08:43:14.056Z,21.32
2018-09-02T08:43:54.582Z,21.25
2018-09-02T08:44:35.113Z,21.29
2018-09-02T08:45:15.665Z,21.25
2018-09-02T08:45:56.151Z,21.31
2018-09-02T08:46:36.677Z,21.27
2018-09-02T08:47:17.896Z,21.12
2018-09-02T08:47:58.439Z,21.14
2018-09-02T08:48:38.970Z,21.22
2018-09-02T08:49:19.487Z,21.21
2018-09-02T08:50:00.018Z,21.17
2018-09-02T08:50:40.541Z,21.21
2018-09-02T08:51:21.093Z,21.24